New Albany, Indiana
Current Conditions -  °F | °C
As of 9:56 PM on Monday 20 Oct 2014 (Local Time) from KSDF Reporting Station
Broken Clouds Broken Clouds  
Wind Chill: 59°   Ceiling: 20000
Heat Index: 59°   Visibility: 10mi
Dew Point: 54°   Wind: 10mph
Humidity: 83%   Direction: 230°SW
Pressure: 29.93"   Gusts: NA
Location:  38.29°N, 85.82°W
Report Text: KSDF 210156Z 23009KT 10SM FEW050 FEW075 BKN200 15/12 A2993 RMK AO2 RAE13 TSE13 SLP133 P0000 T01500122
Loading
Personal Weather Stations






























Interactive Weather Map
Tropical Storm Tracking
New forecast layout! Learn more

10-Day Weather Forecast

Advertisements
Track Severe Weather on mobile